Комсомол

Карта отелей и гостиниц, располагающихся рядом с аэропортом Комсомол :

Комсомол Иркутская область 52° 16' 1.5312" N, 104° 17' 28.9608" E
Код аэродрома ИКАО
UIIL
Код аэродрома RU
УИИЛ
Координаты
N52.26709° E104.29138°
Превышение над уровнем моря
433
Основная полоса
18/36
Курс магнитный
182,8/002,8
Длина основной ВПП
25
Ширина основной ВПП
25
Покрытие основной ВПП
Твёрдое (асфальт)
Освещение ВПП
Нет
Тип: 
Вертодром
Класс аэродрома: 
Принадлежность: 
АОН
Статус: 
Действующий
Сайт: 
E-mail аэродрома: 
Real38@rambler.ru
Страна: 
Россия
Регион: 
Иркутская область
Город: 
Дополнительная информация: 
Горный. Владелец ПП: ООО "Центр стратегических решений". АНППП зарегистрирован в ЗС МТУ ВТ ФАВТ 11 мая 2017 за №СП3-513. Принимает вертолеты с максимальной массой 3,5 т. Базируются вертолеты ООО «РЦ Пилот».

Найти трансфер

С помощью этой формы Вы можете найти трансфер из аэропорта Комсомол в город, аэропорт или вокзал:

Карта места

Javascript is required to view this map.

Погода в аэропортах:

Авиационная погода в Нижнекамске

Регион: 
Погода METAR: 
UWKE 281300Z 23006G11MPS 5000 -SN BLSN BKN009 OVC026 M03/M04 Q1014 R21/450545 NOSIG RMK QFE744/0992
Время наблюдения
2021-11-28T13:00:00Z
Температура C
-3.0
Точка росы
-4.0
Направление ветра
230
Скорость ветра (узлы)
12
Метео видимость
3.11
Явления погоды
-SN BLSN
Условия полета
IFR
Аэропорт подробнее: 

Авиационная погода в Гродно

Регион: 
Погода METAR: 
UMMG 281400Z 12002MPS 4300 BR BKN008 02/01 Q1000 NOSIG
Время наблюдения
2021-11-28T14:00:00Z
Температура C
2.0
Точка росы
1.0
Направление ветра
120
Скорость ветра (узлы)
4
Метео видимость
2.67
Явления погоды
BR
Условия полета
IFR
Аэропорт подробнее: 

Авиационная погода в Бресте

Регион: 
Погода METAR: 
UMBB 281100Z 07003MPS 5000 BR OVC040 02/01 Q0999 NOSIG
Время наблюдения
2021-11-28T11:00:00Z
Температура C
2.0
Точка росы
1.0
Направление ветра
70
Скорость ветра (узлы)
6
Метео видимость
3.11
Явления погоды
BR
Условия полета
MVFR
Аэропорт подробнее: 

Авиационная погода в Николаеве

Регион: 
Погода METAR: 
UKON 281300Z 13003MPS 2600 -SHRA BR BKN005 BKN///CB 12/12 Q1003 NOSIG
Время наблюдения
2021-11-28T13:00:00Z
Температура C
12.0
Точка росы
12.0
Направление ветра
130
Скорость ветра (узлы)
6
Метео видимость
1.62
Явления погоды
-SHRA BR
Условия полета
IFR